Time;durP1;ratioP1;P1;durP2;ratioP2;P2;SDS_P1;SDS_P2;PMS_P1;PMS_P2;Temp;Humidity;BMP_temperature;BMP_pressure;BME280_temperature;BME280_humidity;BME280_pressure;Samples;Min_cycle;Max_cycle;Signal;HPM_P1;HPM_P2
2023/09/18 00:02:18;;;;;;;10.10;7.70;;;;;;;14.16;100.00;97850.44;110405;1241;69290;-60
2023/09/18 00:04:50;;;;;;;11.10;7.90;;;;;;;14.14;100.00;97850.44;110458;1238;58900;-62
2023/09/18 00:07:22;;;;;;;11.10;7.30;;;;;;;14.13;100.00;97851.34;110423;1242;58859;-61
2023/09/18 00:09:54;;;;;;;9.70;6.40;;;;;;;14.13;100.00;97851.36;110628;1238;69701;-62
2023/09/18 00:12:27;;;;;;;8.00;6.50;;;;;;;14.11;100.00;97853.27;110498;1241;68353;-61
2023/09/18 00:14:58;;;;;;;9.50;7.30;;;;;;;14.09;100.00;97846.95;110429;1241;68420;-62
2023/09/18 00:17:36;;;;;;;10.90;8.40;;;;;;;14.08;100.00;97842.83;110495;1242;58881;-62
2023/09/18 00:20:09;;;;;;;9.10;6.90;;;;;;;14.06;100.00;97845.12;110531;1241;58882;-62
2023/09/18 00:22:42;;;;;;;9.10;7.20;;;;;;;14.05;100.00;97843.57;110589;1238;69822;-62
2023/09/18 00:25:15;;;;;;;10.50;8.00;;;;;;;14.04;100.00;97842.28;110527;1244;68605;-61
2023/09/18 00:27:47;;;;;;;9.90;7.20;;;;;;;14.01;100.00;97840.39;110449;1241;69283;-60
2023/09/18 00:30:22;;;;;;;7.60;6.60;;;;;;;13.99;100.00;97839.46;110663;1241;58858;-61
2023/09/18 00:32:57;;;;;;;6.80;5.70;;;;;;;13.98;100.00;97834.69;110612;1244;58905;-62
2023/09/18 00:35:29;;;;;;;7.70;5.90;;;;;;;13.95;100.00;97839.82;110614;1241;70436;-61
2023/09/18 00:38:03;;;;;;;7.10;5.40;;;;;;;13.91;100.00;97840.48;110626;1241;69096;-60
2023/09/18 00:40:34;;;;;;;7.50;5.80;;;;;;;13.88;100.00;97836.34;110287;1242;69356;-60
2023/09/18 00:43:10;;;;;;;7.40;5.60;;;;;;;13.85;100.00;97835.02;110304;1242;58887;-60
2023/09/18 00:45:50;;;;;;;6.80;5.40;;;;;;;13.82;100.00;97834.91;110532;1241;58879;-62
2023/09/18 00:48:25;;;;;;;6.30;5.00;;;;;;;13.78;100.00;97836.27;110645;1238;70593;-61
2023/09/18 00:50:57;;;;;;;7.10;4.90;;;;;;;13.74;100.00;97834.77;110626;1242;68513;-61
2023/09/18 00:53:28;;;;;;;7.80;5.20;;;;;;;13.72;100.00;97836.55;110576;1241;68569;-62
2023/09/18 00:56:00;;;;;;;5.00;4.50;;;;;;;13.70;100.00;97835.44;110554;1241;58928;-62
2023/09/18 00:58:32;;;;;;;5.80;4.60;;;;;;;13.69;100.00;97833.28;110614;1241;58935;-62
2023/09/18 01:01:08;;;;;;;6.40;4.60;;;;;;;13.67;100.00;97833.63;110273;1242;70439;-61
2023/09/18 01:03:43;;;;;;;6.20;5.00;;;;;;;13.65;100.00;97833.27;110517;1241;69851;-61
2023/09/18 01:06:30;;;;;;;7.30;4.70;;;;;;;13.62;100.00;97831.37;110484;1243;68594;-60
2023/09/18 01:09:11;;;;;;;7.70;5.30;;;;;;;13.60;100.00;97828.25;110505;1243;58944;-60
2023/09/18 01:12:26;;;;;;;7.60;5.40;;;;;;;13.59;100.00;97826.89;110455;1241;58918;-62
2023/09/18 01:15:06;;;;;;;8.00;5.70;;;;;;;13.56;100.00;97828.89;110536;1241;70536;-62
2023/09/18 01:17:43;;;;;;;8.10;5.60;;;;;;;13.53;100.00;97826.70;110508;1241;69171;-61
2023/09/18 01:20:16;;;;;;;7.00;5.70;;;;;;;13.50;100.00;97822.54;110490;1245;69151;-60
2023/09/18 01:22:50;;;;;;;6.10;5.20;;;;;;;13.47;100.00;97825.36;110415;1241;58860;-62
2023/09/18 01:25:34;;;;;;;7.00;5.40;;;;;;;13.44;100.00;97823.66;110524;1241;58863;-61
2023/09/18 01:28:16;;;;;;;6.60;5.20;;;;;;;13.42;100.00;97824.41;110271;1245;69705;-60
2023/09/18 01:30:53;;;;;;;7.50;5.70;;;;;;;13.39;100.00;97822.17;110300;1242;68493;-62
2023/09/18 01:33:28;;;;;;;6.90;5.20;;;;;;;13.36;100.00;97825.02;110426;1241;67734;-62
2023/09/18 01:36:07;;;;;;;8.20;7.00;;;;;;;13.35;100.00;97824.42;110385;1241;58866;-61
2023/09/18 01:38:43;;;;;;;8.10;6.10;;;;;;;13.33;100.00;97825.43;110360;1241;58887;-60
2023/09/18 01:41:20;;;;;;;8.70;6.60;;;;;;;13.30;100.00;97828.50;110341;1239;70658;-62
2023/09/18 01:43:56;;;;;;;7.10;5.40;;;;;;;13.28;100.00;97828.84;110466;1241;68345;-60
2023/09/18 01:46:37;;;;;;;;;;;;;;;13.26;100.00;97830.88;110414;1240;68517;-60
2023/09/18 01:49:12;;;;;;;6.60;5.00;;;;;;;13.23;100.00;97835.41;110217;1242;58934;-60
2023/09/18 01:51:49;;;;;;;7.10;5.20;;;;;;;13.23;100.00;97831.63;110311;1241;58833;-60
2023/09/18 01:54:25;;;;;;;6.80;5.00;;;;;;;13.21;100.00;97835.41;110435;1241;70421;-62
2023/09/18 01:57:00;;;;;;;7.20;5.60;;;;;;;13.20;100.00;97833.23;110332;1241;69085;-62
2023/09/18 01:59:33;;;;;;;8.30;5.20;;;;;;;13.17;100.00;97828.58;110258;1245;68256;-60
2023/09/18 02:02:09;;;;;;;8.30;7.20;;;;;;;13.14;100.00;97829.13;110219;1241;58980;-60
2023/09/18 02:04:55;;;;;;;8.40;7.00;;;;;;;13.12;100.00;97826.65;110539;1241;58828;-60
2023/09/18 02:07:39;;;;;;;10.50;7.30;;;;;;;13.11;100.00;97825.73;110184;1240;70679;-62
2023/09/18 02:10:14;;;;;;;8.40;6.70;;;;;;;13.08;100.00;97825.59;110239;1242;68492;-62
2023/09/18 02:12:46;;;;;;;10.20;8.00;;;;;;;13.05;100.00;97826.35;110503;1241;68504;-62
2023/09/18 02:15:23;;;;;;;7.90;6.80;;;;;;;13.03;100.00;97827.74;110227;1248;58889;-60
2023/09/18 02:18:06;;;;;;;8.30;5.80;;;;;;;13.00;100.00;97832.08;110227;1242;58892;-61
2023/09/18 02:20:48;;;;;;;8.10;5.70;;;;;;;12.99;100.00;97829.91;110357;1241;69845;-63
2023/09/18 02:23:22;;;;;;;7.00;5.70;;;;;;;12.98;100.00;97831.20;110411;1243;69311;-61
2023/09/18 02:26:00;;;;;;;6.60;5.20;;;;;;;12.96;100.00;97831.24;110508;1242;69147;-60
2023/09/18 02:28:39;;;;;;;7.60;4.90;;;;;;;12.95;100.00;97832.52;110403;1241;58947;-62
2023/09/18 02:31:13;;;;;;;7.90;5.80;;;;;;;12.93;100.00;97831.74;110539;1241;58888;-60
2023/09/18 02:33:48;;;;;;;7.30;5.90;;;;;;;12.94;100.00;97826.29;110510;1240;70579;-60
2023/09/18 02:36:22;;;;;;;8.90;6.80;;;;;;;12.94;100.00;97824.20;110532;1241;69236;-62
2023/09/18 02:38:53;;;;;;;10.10;6.40;;;;;;;12.93;100.00;97825.83;110482;1241;69115;-60
2023/09/18 02:41:23;;;;;;;7.60;5.50;;;;;;;12.91;100.00;97825.79;110484;1240;58900;-60
2023/09/18 02:43:55;;;;;;;7.00;5.80;;;;;;;12.86;100.00;97823.37;110405;1240;58906;-59
2023/09/18 02:46:29;;;;;;;8.40;6.50;;;;;;;12.83;100.00;97824.36;110228;1242;70647;-62
2023/09/18 02:49:03;;;;;;;9.00;6.50;;;;;;;12.79;100.00;97824.80;110361;1244;68453;-60
2023/09/18 02:51:34;;;;;;;11.40;8.20;;;;;;;12.77;100.00;97830.02;110229;1240;69080;-63
2023/09/18 02:54:06;;;;;;;11.60;8.70;;;;;;;12.77;100.00;97834.42;110494;1241;58872;-61
2023/09/18 02:56:37;;;;;;;11.20;9.10;;;;;;;12.74;100.00;97835.45;110491;1241;58883;-62
2023/09/18 02:59:09;;;;;;;11.00;8.90;;;;;;;12.72;100.00;97834.77;110263;1241;69548;-60
2023/09/18 03:01:40;;;;;;;11.60;8.10;;;;;;;12.69;100.00;97834.29;110198;1242;69036;-60
2023/09/18 03:04:12;;;;;;;9.90;7.80;;;;;;;12.66;100.00;97835.73;110431;1242;69264;-60
2023/09/18 03:06:42;;;;;;;9.30;6.90;;;;;;;12.63;100.00;97838.23;110297;1242;58954;-60
2023/09/18 03:09:15;;;;;;;8.90;6.70;;;;;;;12.61;100.00;97836.09;110478;1241;58869;-61
2023/09/18 03:11:45;;;;;;;9.30;7.00;;;;;;;12.60;100.00;97837.02;110252;1241;69813;-60
2023/09/18 03:14:16;;;;;;;9.30;7.00;;;;;;;12.59;100.00;97839.58;110439;1241;68396;-60
2023/09/18 03:16:46;;;;;;;7.20;6.10;;;;;;;12.58;100.00;97838.28;110234;1241;69141;-60
2023/09/18 03:19:17;;;;;;;9.40;6.90;;;;;;;12.56;100.00;97839.30;110240;1242;58898;-61
2023/09/18 03:21:49;;;;;;;8.90;7.10;;;;;;;12.53;100.00;97841.98;110277;1242;58920;-62
2023/09/18 03:24:21;;;;;;;9.90;7.50;;;;;;;12.49;100.00;97835.94;110500;1241;71057;-62
2023/09/18 03:26:51;;;;;;;10.00;6.40;;;;;;;12.46;100.00;97836.68;110496;1241;69041;-61
2023/09/18 03:29:22;;;;;;;;;;;;;;;12.45;100.00;97840.80;110465;1248;68498;-62
2023/09/18 03:31:57;;;;;;;8.50;6.50;;;;;;;12.43;100.00;97841.80;110497;1241;58869;-62
2023/09/18 03:34:29;;;;;;;8.70;6.60;;;;;;;12.42;100.00;97840.64;110480;1241;58882;-61
2023/09/18 03:36:59;;;;;;;9.30;7.10;;;;;;;12.40;100.00;97842.92;110259;1243;70477;-62
2023/09/18 03:39:29;;;;;;;;;;;;;;;12.37;100.00;97843.95;110482;1242;68342;-59
2023/09/18 03:41:59;;;;;;;10.60;6.90;;;;;;;12.36;100.00;97840.24;110316;1241;69683;-59
2023/09/18 03:44:30;;;;;;;10.80;6.60;;;;;;;12.35;100.00;97838.21;110277;1240;59263;-62
2023/09/18 03:47:00;;;;;;;8.50;6.90;;;;;;;12.34;100.00;97838.98;110487;1241;58885;-61
2023/09/18 03:49:31;;;;;;;7.80;5.80;;;;;;;12.34;100.00;97841.11;110485;1241;70611;-61
2023/09/18 03:52:00;;;;;;;7.30;5.90;;;;;;;12.32;100.00;97838.29;110234;1241;69270;-62
2023/09/18 03:54:29;;;;;;;8.10;6.60;;;;;;;12.29;100.00;97837.04;110419;1244;68514;-60
2023/09/18 03:56:59;;;;;;;8.10;6.40;;;;;;;12.27;100.00;97840.20;110416;1241;58904;-60
2023/09/18 03:59:29;;;;;;;10.00;7.00;;;;;;;12.24;100.00;97843.72;110509;1241;58882;-60
2023/09/18 04:01:58;;;;;;;9.40;7.60;;;;;;;12.21;100.00;97844.60;110588;1240;71159;-60
2023/09/18 04:04:28;;;;;;;8.50;6.60;;;;;;;12.19;100.00;97849.85;110283;1242;69232;-60
2023/09/18 04:06:57;;;;;;;;;;;;;;;12.17;100.00;97849.60;110615;1241;69284;-61
2023/09/18 04:09:29;;;;;;;7.20;5.60;;;;;;;12.16;100.00;97852.83;110575;1238;58935;-60
2023/09/18 04:11:58;;;;;;;;;;;;;;;12.16;100.00;97850.25;110458;1238;58857;-60
2023/09/18 04:14:28;;;;;;;6.60;5.00;;;;;;;12.16;100.00;97850.61;110618;1241;71736;-59
2023/09/18 04:16:57;;;;;;;7.60;5.10;;;;;;;12.18;100.00;97847.51;110230;1238;69828;-60
2023/09/18 04:19:28;;;;;;;7.80;5.50;;;;;;;12.20;100.00;97849.57;110211;1238;68493;-61
2023/09/18 04:21:58;;;;;;;8.00;5.60;;;;;;;12.22;100.00;97853.27;110578;1242;58880;-61
2023/09/18 04:24:29;;;;;;;7.40;5.70;;;;;;;12.22;100.00;97854.13;110258;1238;58918;-63
2023/09/18 04:27:01;;;;;;;8.30;6.20;;;;;;;12.21;100.00;97857.20;110437;1242;70071;-61
2023/09/18 04:29:31;;;;;;;7.20;5.80;;;;;;;12.20;100.00;97858.83;110496;1240;68568;-62
2023/09/18 04:32:04;;;;;;;7.90;5.50;;;;;;;12.25;100.00;97860.58;110655;1241;68554;-60
2023/09/18 04:34:34;;;;;;;8.80;5.40;;;;;;;12.34;100.00;97861.36;110264;1238;58948;-60
2023/09/18 04:37:05;;;;;;;10.60;6.90;;;;;;;12.45;100.00;97862.79;110422;1241;58851;-61
2023/09/18 04:39:36;;;;;;;8.50;6.30;;;;;;;12.56;100.00;97864.14;110598;1240;70896;-61
2023/09/18 04:42:06;;;;;;;8.60;6.90;;;;;;;12.70;100.00;97866.58;110617;1238;68436;-61
2023/09/18 04:44:36;;;;;;;8.90;6.70;;;;;;;12.87;100.00;97869.46;110562;1241;69855;-61
2023/09/18 04:47:06;;;;;;;9.00;7.50;;;;;;;13.08;100.00;97868.46;110510;1240;58889;-60
2023/09/18 04:49:36;;;;;;;;;;;;;;;13.27;100.00;97863.34;110289;1238;58913;-60
2023/09/18 04:52:06;;;;;;;7.40;6.10;;;;;;;13.47;100.00;97866.71;110431;1244;70503;-60
2023/09/18 04:54:36;;;;;;;7.00;5.60;;;;;;;13.74;100.00;97870.73;110323;1238;69050;-60
2023/09/18 04:57:05;;;;;;;7.40;5.90;;;;;;;14.01;100.00;97870.73;110609;1241;69952;-60
2023/09/18 04:59:34;;;;;;;6.70;5.70;;;;;;;14.25;100.00;97867.92;110321;1238;58874;-60
2023/09/18 05:02:04;;;;;;;;;;;;;;;14.47;100.00;97865.11;110512;1241;58906;-60
2023/09/18 05:04:33;;;;;;;8.50;6.00;;;;;;;14.60;100.00;97864.21;110239;1239;69805;-60
2023/09/18 05:07:03;;;;;;;8.60;6.70;;;;;;;14.85;100.00;97863.41;110580;1248;69177;-59
2023/09/18 05:09:34;;;;;;;8.10;6.50;;;;;;;14.95;100.00;97863.38;110572;1241;69260;-60
2023/09/18 05:12:08;;;;;;;9.00;6.00;;;;;;;15.15;100.00;97864.07;110602;1238;58915;-60
2023/09/18 05:14:38;;;;;;;10.10;6.50;;;;;;;15.34;100.00;97864.20;110375;1240;58930;-60
2023/09/18 05:17:12;;;;;;;7.30;6.40;;;;;;;15.49;100.00;97857.61;110344;1238;70402;-59
2023/09/18 05:19:43;;;;;;;10.00;6.50;;;;;;;15.66;100.00;97853.38;110368;1241;69411;-60
2023/09/18 05:22:13;;;;;;;8.90;6.60;;;;;;;15.74;100.00;97855.52;110435;1243;68569;-60
2023/09/18 05:24:45;;;;;;;7.00;5.40;;;;;;;15.83;100.00;97853.70;110431;1239;58918;-60
2023/09/18 05:27:14;;;;;;;7.80;6.60;;;;;;;15.96;100.00;97854.10;110343;1238;58808;-60
2023/09/18 05:29:45;;;;;;;7.50;6.20;;;;;;;16.12;100.00;97856.92;110380;1241;70441;-61
2023/09/18 05:32:14;;;;;;;7.60;6.20;;;;;;;16.35;100.00;97855.46;110357;1241;69712;-59
2023/09/18 05:34:45;;;;;;;7.70;5.80;;;;;;;16.57;100.00;97856.77;110346;1241;69854;-60
2023/09/18 05:37:15;;;;;;;7.60;6.20;;;;;;;16.89;100.00;97855.17;110454;1238;58872;-60
2023/09/18 05:39:45;;;;;;;8.40;7.40;;;;;;;17.07;100.00;97855.33;110363;1241;58891;-60
2023/09/18 05:42:14;;;;;;;7.50;6.50;;;;;;;17.33;100.00;97855.09;110373;1244;70638;-61
2023/09/18 05:44:44;;;;;;;8.60;7.40;;;;;;;17.45;99.51;97857.55;110360;1238;69232;-60
2023/09/18 05:47:13;;;;;;;8.50;7.60;;;;;;;17.60;100.00;97863.36;110356;1241;69685;-60
2023/09/18 05:49:43;;;;;;;;;;;;;;;17.67;99.28;97857.73;110427;1238;58926;-59
2023/09/18 05:52:13;;;;;;;9.90;7.70;;;;;;;17.79;98.98;97857.48;110468;1242;58865;-60
2023/09/18 05:54:42;;;;;;;11.20;7.70;;;;;;;17.93;98.94;97859.12;110403;1238;70813;-59
2023/09/18 05:57:12;;;;;;;;;;;;;;;18.11;99.26;97859.90;110410;1241;69658;-61
2023/09/18 05:59:43;;;;;;;9.80;7.70;;;;;;;18.13;95.51;97862.51;110410;1238;67531;-61
2023/09/18 06:02:12;;;;;;;10.80;6.90;;;;;;;18.24;94.02;97865.65;110407;1242;58857;-61
2023/09/18 06:04:45;;;;;;;9.80;6.80;;;;;;;18.40;90.86;97861.11;110446;1239;58879;-62
2023/09/18 06:07:15;;;;;;;7.70;6.40;;;;;;;18.80;92.02;97863.15;110357;1238;70990;-60
2023/09/18 06:09:45;;;;;;;10.50;6.30;;;;;;;19.20;88.87;97858.30;110673;1238;69832;-62
2023/09/18 06:12:15;;;;;;;9.40;6.70;;;;;;;19.39;88.12;97860.68;110538;1242;69099;-61
2023/09/18 06:14:46;;;;;;;7.50;6.70;;;;;;;19.59;87.92;97862.84;110539;1241;58915;-61
2023/09/18 06:17:16;;;;;;;9.20;7.00;;;;;;;19.53;84.76;97858.73;110603;1241;58918;-57
2023/09/18 06:19:46;;;;;;;9.30;6.80;;;;;;;19.67;84.36;97855.52;110592;1249;70668;-60
2023/09/18 06:22:17;;;;;;;8.30;6.90;;;;;;;20.01;84.11;97850.55;110524;1240;68975;-59
2023/09/18 06:24:46;;;;;;;6.80;6.10;;;;;;;20.18;80.62;97855.84;110404;1238;69356;-61
2023/09/18 06:27:16;;;;;;;7.50;6.10;;;;;;;20.33;80.33;97856.39;110419;1238;58902;-60
2023/09/18 06:29:46;;;;;;;6.90;6.20;;;;;;;20.51;79.88;97855.91;110508;1241;58851;-62
2023/09/18 06:32:15;;;;;;;7.80;6.50;;;;;;;20.52;76.90;97855.62;110456;1238;71102;-60
2023/09/18 06:34:45;;;;;;;;;;;;;;;20.82;75.62;97855.42;110575;1240;69173;-63
2023/09/18 06:37:15;;;;;;;7.00;6.00;;;;;;;21.12;74.37;97859.20;110519;1242;69118;-60
2023/09/18 06:39:45;;;;;;;6.70;5.60;;;;;;;21.45;73.58;97851.38;110380;1238;58917;-60
2023/09/18 06:42:15;;;;;;;7.00;6.00;;;;;;;21.76;72.63;97855.36;110601;1241;58820;-60
2023/09/18 06:44:45;;;;;;;7.10;5.60;;;;;;;22.14;73.52;97855.36;110620;1238;69686;-60
2023/09/18 06:47:15;;;;;;;7.10;5.60;;;;;;;22.44;70.09;97856.55;110608;1238;69055;-60
2023/09/18 06:49:45;;;;;;;6.40;5.70;;;;;;;22.46;66.01;97852.27;110486;1240;69887;-60
2023/09/18 06:52:14;;;;;;;;;;;;;;;22.76;65.78;97851.97;110464;1238;58887;-61
2023/09/18 06:54:44;;;;;;;6.90;5.70;;;;;;;23.00;66.41;97854.24;110597;1241;58869;-60
2023/09/18 06:57:13;;;;;;;;;;;;;;;23.25;63.76;97848.44;110627;1238;70516;-61
2023/09/18 06:59:43;;;;;;;6.80;5.40;;;;;;;23.52;64.47;97848.27;110617;1240;69166;-61
2023/09/18 07:02:14;;;;;;;6.30;5.20;;;;;;;23.81;62.57;97842.67;110282;1245;68511;-60
2023/09/18 07:04:47;;;;;;;7.10;5.00;;;;;;;24.07;63.51;97840.41;110030;1238;710362;-59
2023/09/18 07:07:23;;;;;;;6.60;5.40;;;;;;;24.20;59.25;97841.31;110512;1241;58972;-60
2023/09/18 07:09:54;;;;;;;6.00;5.40;;;;;;;24.44;58.95;97846.39;110622;1242;69888;-60
2023/09/18 07:12:28;;;;;;;6.00;5.40;;;;;;;24.67;58.56;97840.63;110658;1243;69680;-60
2023/09/18 07:15:04;;;;;;;6.50;5.70;;;;;;;24.70;56.36;97837.23;110605;1239;68813;-60
2023/09/18 07:17:35;;;;;;;5.50;4.90;;;;;;;24.71;58.08;97838.61;110605;1238;58915;-60
2023/09/18 07:20:13;;;;;;;6.70;6.00;;;;;;;24.76;53.79;97832.04;110543;1240;59074;-59
2023/09/18 07:22:49;;;;;;;6.10;5.50;;;;;;;24.82;53.15;97838.73;110464;1241;69656;-62
2023/09/18 07:25:19;;;;;;;6.30;5.30;;;;;;;24.93;53.53;97837.05;110588;1241;69702;-61
2023/09/18 07:27:48;;;;;;;;;;;;;;;25.00;52.23;97838.85;110636;1238;69730;-61
2023/09/18 07:30:20;;;;;;;6.00;5.30;;;;;;;25.14;50.82;97840.19;110520;1238;58934;-60
2023/09/18 07:32:49;;;;;;;5.80;5.20;;;;;;;25.10;50.34;97839.45;110489;1241;58833;-61
2023/09/18 07:35:19;;;;;;;5.40;4.70;;;;;;;25.16;49.68;97836.94;110551;1240;71025;-60
2023/09/18 07:37:49;;;;;;;5.90;5.20;;;;;;;25.32;50.65;97838.10;110599;1240;68345;-61
2023/09/18 07:40:19;;;;;;;6.10;4.80;;;;;;;25.45;49.54;97836.00;110578;1241;69242;-61
2023/09/18 07:42:49;;;;;;;6.20;5.00;;;;;;;25.57;49.52;97834.85;110554;1242;58928;-60
2023/09/18 07:45:18;;;;;;;5.70;5.10;;;;;;;25.62;48.02;97832.11;110460;1241;58914;-61
2023/09/18 07:47:48;;;;;;;7.00;5.20;;;;;;;25.68;48.29;97836.71;110451;1238;70415;-60
2023/09/18 07:50:18;;;;;;;5.10;4.60;;;;;;;25.75;48.01;97838.87;110391;1240;69904;-60
2023/09/18 07:52:47;;;;;;;6.50;5.20;;;;;;;25.92;48.51;97839.67;110513;1238;69897;-60
2023/09/18 07:55:18;;;;;;;7.40;4.40;;;;;;;26.32;47.02;97837.09;110623;1242;58866;-60
2023/09/18 07:57:49;;;;;;;6.00;4.80;;;;;;;26.70;47.11;97836.76;110605;1243;58934;-60
2023/09/18 08:00:19;;;;;;;6.00;4.70;;;;;;;26.97;45.45;97835.67;110401;1240;70985;-60
2023/09/18 08:02:50;;;;;;;6.10;4.80;;;;;;;26.99;45.06;97832.66;110402;1240;69251;-60
2023/09/18 08:05:22;;;;;;;6.50;5.00;;;;;;;27.15;44.51;97831.45;110336;1239;69186;-60
2023/09/18 08:07:52;;;;;;;6.40;4.70;;;;;;;27.16;43.55;97834.77;110515;1238;58867;-60
2023/09/18 08:10:23;;;;;;;5.70;5.10;;;;;;;27.28;43.89;97837.48;110544;1238;58863;-60
2023/09/18 08:12:53;;;;;;;5.00;4.50;;;;;;;27.44;43.76;97829.16;110415;1241;71122;-61
2023/09/18 08:15:24;;;;;;;5.10;4.60;;;;;;;27.43;43.62;97832.38;110481;1238;69227;-60
2023/09/18 08:17:53;;;;;;;4.80;4.30;;;;;;;27.66;43.06;97831.52;110345;1241;69897;-61
2023/09/18 08:20:23;;;;;;;5.50;4.60;;;;;;;27.85;41.77;97826.58;110418;1245;58937;-61
2023/09/18 08:22:53;;;;;;;5.30;4.50;;;;;;;27.99;42.06;97828.12;110543;1240;58871;-60
2023/09/18 08:25:26;;;;;;;5.00;4.40;;;;;;;28.52;42.43;97827.49;110481;1238;71195;-60
2023/09/18 08:27:57;;;;;;;4.80;4.00;;;;;;;29.04;42.47;97825.10;110372;1243;67829;-59
2023/09/18 08:30:26;;;;;;;6.30;3.90;;;;;;;29.35;40.85;97820.00;110393;1241;69657;-63
2023/09/18 08:32:56;;;;;;;5.90;4.50;;;;;;;29.84;40.57;97817.77;110409;1238;58954;-63
2023/09/18 08:35:29;;;;;;;5.20;4.50;;;;;;;29.95;39.44;97816.23;110516;1243;58889;-62
2023/09/18 08:37:58;;;;;;;4.80;4.40;;;;;;;29.93;38.93;97810.04;110416;1238;71192;-62
2023/09/18 08:40:28;;;;;;;4.40;4.00;;;;;;;29.95;38.35;97810.23;110576;1241;69107;-60
2023/09/18 08:43:03;;;;;;;4.60;4.10;;;;;;;30.09;38.41;97807.90;110429;1241;68589;-61
2023/09/18 08:45:53;;;;;;;4.90;4.40;;;;;;;30.20;37.78;97804.06;110560;1238;58921;-61
2023/09/18 08:48:27;;;;;;;4.50;3.90;;;;;;;30.13;37.79;97800.95;110598;1240;58898;-61
2023/09/18 08:50:57;;;;;;;6.50;4.70;;;;;;;29.59;38.07;97802.32;110613;1240;70657;-61
2023/09/18 08:53:27;;;;;;;5.70;4.20;;;;;;;29.82;38.01;97801.99;110645;1241;69794;-61
2023/09/18 08:55:58;;;;;;;5.00;4.50;;;;;;;30.17;37.90;97801.84;110493;1241;69877;-61
2023/09/18 08:58:37;;;;;;;4.80;4.40;;;;;;;30.46;38.32;97800.84;110471;1238;58864;-60
2023/09/18 09:01:09;;;;;;;4.60;4.20;;;;;;;30.77;37.22;97801.56;110589;1240;58883;-62
2023/09/18 09:03:41;;;;;;;4.80;4.30;;;;;;;30.65;36.46;97796.57;110633;1238;68835;-61
2023/09/18 09:06:12;;;;;;;4.70;4.30;;;;;;;30.59;36.83;97796.21;110557;1240;69139;-61
2023/09/18 09:08:41;;;;;;;4.30;3.80;;;;;;;30.76;36.15;97795.36;110462;1245;69113;-61
2023/09/18 09:11:11;;;;;;;4.50;4.00;;;;;;;30.87;36.61;97795.47;110563;1238;58873;-61
2023/09/18 09:13:40;;;;;;;4.50;4.00;;;;;;;31.02;36.48;97795.81;110608;1243;58933;-60
2023/09/18 09:16:17;;;;;;;5.10;4.60;;;;;;;31.39;35.98;97795.07;110616;1241;69490;-60
2023/09/18 09:18:49;;;;;;;4.50;4.10;;;;;;;31.27;35.46;97795.86;110553;1239;69813;-60
2023/09/18 09:21:20;;;;;;;5.30;4.70;;;;;;;31.68;35.79;97794.43;110603;1238;69296;-62
2023/09/18 09:23:53;;;;;;;5.70;4.20;;;;;;;31.90;34.46;97790.48;110374;1241;58946;-60
2023/09/18 09:26:23;;;;;;;5.10;4.20;;;;;;;31.69;34.49;97792.98;110603;1238;58873;-60
2023/09/18 09:28:53;;;;;;;6.40;4.40;;;;;;;31.34;34.36;97790.19;110606;1240;71522;-61
2023/09/18 09:31:24;;;;;;;5.20;4.60;;;;;;;31.20;34.91;97787.17;110604;1239;68977;-60
2023/09/18 09:33:56;;;;;;;5.20;4.50;;;;;;;31.25;34.67;97785.95;110524;1241;69325;-61
2023/09/18 09:36:25;;;;;;;6.00;4.20;;;;;;;30.94;34.66;97784.60;110551;1243;58886;-61
2023/09/18 09:38:59;;;;;;;5.10;4.60;;;;;;;30.65;35.17;97783.01;110625;1238;58944;-60
2023/09/18 09:41:31;;;;;;;5.10;4.60;;;;;;;30.56;35.77;97783.90;110611;1240;71165;-60
2023/09/18 09:44:00;;;;;;;5.00;4.50;;;;;;;30.79;35.23;97784.71;110626;1238;69160;-61
2023/09/18 09:46:29;;;;;;;4.70;4.20;;;;;;;30.70;35.40;97781.95;110495;1238;69716;-61
2023/09/18 09:49:06;;;;;;;5.30;4.40;;;;;;;31.17;35.09;97779.17;110605;1240;58946;-61
2023/09/18 09:51:35;;;;;;;4.50;4.10;;;;;;;31.45;34.44;97777.18;110459;1238;59255;-62
2023/09/18 09:54:07;;;;;;;3.60;3.20;;;;;;;31.60;34.11;97776.60;110534;1241;70688;-62
2023/09/18 09:56:48;;;;;;;4.90;4.10;;;;;;;31.94;33.51;97770.63;110504;1239;70174;-60
2023/09/18 09:59:19;;;;;;;4.00;3.30;;;;;;;32.19;33.12;97769.33;110479;1240;69689;-61
2023/09/18 10:01:50;;;;;;;4.50;4.10;;;;;;;32.55;33.05;97768.77;110596;1241;58886;-61
2023/09/18 10:04:21;;;;;;;4.50;3.80;;;;;;;32.62;32.49;97764.67;110255;1242;58914;-60
2023/09/18 10:07:05;;;;;;;3.70;3.40;;;;;;;32.56;32.95;97762.51;110527;1241;70602;-61
2023/09/18 10:09:36;;;;;;;5.90;4.50;;;;;;;32.95;32.35;97762.74;110524;1238;68511;-61
2023/09/18 10:12:11;;;;;;;4.40;3.60;;;;;;;32.83;31.56;97758.25;110567;1241;69239;-62
2023/09/18 10:14:42;;;;;;;3.80;3.20;;;;;;;32.72;32.40;97753.73;110475;1242;58992;-62
2023/09/18 10:17:31;;;;;;;5.20;4.70;;;;;;;32.82;32.04;97753.36;110543;1240;58876;-60
2023/09/18 10:20:08;;;;;;;5.00;4.40;;;;;;;32.97;31.81;97748.96;110550;1245;71017;-61
2023/09/18 10:22:42;;;;;;;4.90;4.30;;;;;;;32.82;31.22;97737.70;110517;1240;70186;-60
2023/09/18 10:25:18;;;;;;;4.20;3.40;;;;;;;32.45;32.32;97738.18;110497;1239;70394;-60
2023/09/18 10:27:53;;;;;;;4.70;3.20;;;;;;;32.68;33.00;97731.21;110445;1243;58931;-62
2023/09/18 10:30:23;;;;;;;3.10;2.60;;;;;;;33.24;31.80;97723.48;110482;1241;58898;-62
2023/09/18 10:32:53;;;;;;;3.60;3.30;;;;;;;33.78;30.59;97713.33;110419;1241;70406;-63
2023/09/18 10:35:23;;;;;;;4.50;3.50;;;;;;;34.41;31.28;97709.11;110550;1238;68692;-62
2023/09/18 10:37:55;;;;;;;4.00;3.40;;;;;;;34.92;30.18;97706.30;110427;1245;68976;-61
2023/09/18 10:40:26;;;;;;;4.10;3.40;;;;;;;34.98;29.46;97701.36;110589;1240;58939;-62
2023/09/18 10:42:58;;;;;;;4.10;3.20;;;;;;;34.78;29.15;97700.33;110619;1241;58894;-61
2023/09/18 10:45:28;;;;;;;3.50;3.20;;;;;;;34.52;29.46;97695.27;110588;1238;70874;-60
2023/09/18 10:47:58;;;;;;;3.20;2.90;;;;;;;34.52;29.60;97692.78;110623;1238;69179;-61
2023/09/18 10:50:29;;;;;;;4.40;3.80;;;;;;;34.62;29.14;97689.90;110634;1240;69377;-61
2023/09/18 10:52:59;;;;;;;3.80;3.30;;;;;;;34.51;29.43;97687.79;110582;1238;58883;-61
2023/09/18 10:55:28;;;;;;;4.20;3.80;;;;;;;34.74;28.83;97691.39;110603;1243;58895;-61
2023/09/18 10:58:00;;;;;;;3.90;2.90;;;;;;;34.43;28.69;97685.54;110602;1238;71286;-61
2023/09/18 11:00:31;;;;;;;3.60;3.30;;;;;;;34.02;29.05;97683.34;110622;1240;69797;-61
2023/09/18 11:03:17;;;;;;;4.00;3.00;;;;;;;34.20;29.51;97682.17;110629;1242;69829;-61
2023/09/18 11:06:07;;;;;;;3.80;3.00;;;;;;;33.96;29.41;97678.19;110640;1238;58906;-63
2023/09/18 11:09:01;;;;;;;4.50;3.20;;;;;;;34.75;28.78;97674.95;110637;1241;58913;-63
2023/09/18 11:11:32;;;;;;;3.90;3.30;;;;;;;35.04;27.94;97671.26;110606;1240;71221;-63
2023/09/18 11:14:04;;;;;;;4.00;3.20;;;;;;;34.66;28.12;97667.70;110623;1243;68640;-63
2023/09/18 11:16:38;;;;;;;3.60;3.00;;;;;;;34.83;28.15;97663.66;110598;1241;69836;-61
2023/09/18 11:19:10;;;;;;;3.20;2.80;;;;;;;34.96;28.33;97660.39;110618;1240;58905;-61
2023/09/18 11:21:40;;;;;;;3.30;3.00;;;;;;;35.13;28.76;97658.14;110636;1241;58796;-62
2023/09/18 11:24:22;;;;;;;4.10;3.00;;;;;;;35.31;28.43;97655.21;110595;1241;70623;-61
2023/09/18 11:26:53;;;;;;;4.00;3.10;;;;;;;34.96;27.71;97658.70;110611;1240;69207;-62
2023/09/18 11:29:26;;;;;;;4.00;2.80;;;;;;;35.16;27.75;97653.56;110431;1245;69096;-65
2023/09/18 11:31:57;;;;;;;2.70;2.40;;;;;;;34.91;27.75;97653.45;110479;1238;58883;-61
2023/09/18 11:34:35;;;;;;;3.00;2.60;;;;;;;34.94;27.96;97648.96;110517;1241;58870;-61
2023/09/18 11:37:25;;;;;;;3.80;2.50;;;;;;;35.56;26.86;97647.17;110449;1238;71139;-61
2023/09/18 11:39:55;;;;;;;3.60;2.60;;;;;;;35.92;27.37;97650.89;110578;1238;69227;-61
2023/09/18 11:42:26;;;;;;;3.90;3.20;;;;;;;36.08;26.46;97651.03;110501;1246;69691;-61
2023/09/18 11:44:58;;;;;;;5.50;3.10;;;;;;;36.35;25.76;97651.17;110527;1238;58896;-61
2023/09/18 11:47:29;;;;;;;2.50;2.30;;;;;;;35.73;26.28;97642.46;110601;1238;59251;-62
2023/09/18 11:49:59;;;;;;;3.00;2.70;;;;;;;35.96;26.02;97640.98;110590;1242;71190;-60